sensor_id;sensor_type;location;lat;lon;timestamp;P1;durP1;ratioP1;P2;durP2;ratioP2
20884;SDS011;10602;48.000;9.654;2022-12-19T00:01:22;40.30;;;19.10;;
20884;SDS011;10602;48.000;9.654;2022-12-19T00:03:53;40.27;;;18.07;;
20884;SDS011;10602;48.000;9.654;2022-12-19T00:06:23;38.63;;;18.10;;
20884;SDS011;10602;48.000;9.654;2022-12-19T00:08:51;39.87;;;17.20;;
20884;SDS011;10602;48.000;9.654;2022-12-19T00:11:21;64.97;;;25.77;;
20884;SDS011;10602;48.000;9.654;2022-12-19T00:13:50;42.40;;;18.90;;
20884;SDS011;10602;48.000;9.654;2022-12-19T00:16:19;43.53;;;19.30;;
20884;SDS011;10602;48.000;9.654;2022-12-19T00:18:49;71.93;;;31.20;;
20884;SDS011;10602;48.000;9.654;2022-12-19T00:21:19;39.17;;;16.93;;
20884;SDS011;10602;48.000;9.654;2022-12-19T00:23:48;39.87;;;16.90;;
20884;SDS011;10602;48.000;9.654;2022-12-19T00:26:20;47.87;;;20.50;;
20884;SDS011;10602;48.000;9.654;2022-12-19T00:28:51;48.70;;;19.27;;
20884;SDS011;10602;48.000;9.654;2022-12-19T00:31:21;51.07;;;20.67;;
20884;SDS011;10602;48.000;9.654;2022-12-19T00:33:50;65.93;;;25.20;;
20884;SDS011;10602;48.000;9.654;2022-12-19T00:36:23;53.13;;;21.53;;
20884;SDS011;10602;48.000;9.654;2022-12-19T00:38:48;127.87;;;45.00;;
20884;SDS011;10602;48.000;9.654;2022-12-19T00:41:27;44.73;;;19.97;;
20884;SDS011;10602;48.000;9.654;2022-12-19T00:46:27;57.83;;;23.43;;
20884;SDS011;10602;48.000;9.654;2022-12-19T00:48:59;45.33;;;19.53;;
20884;SDS011;10602;48.000;9.654;2022-12-19T00:51:28;54.83;;;21.80;;
20884;SDS011;10602;48.000;9.654;2022-12-19T00:53:57;62.97;;;26.87;;
20884;SDS011;10602;48.000;9.654;2022-12-19T00:56:26;52.03;;;21.13;;
20884;SDS011;10602;48.000;9.654;2022-12-19T00:58:56;46.50;;;19.97;;
20884;SDS011;10602;48.000;9.654;2022-12-19T01:01:25;42.87;;;18.73;;
20884;SDS011;10602;48.000;9.654;2022-12-19T01:03:57;47.00;;;19.43;;
20884;SDS011;10602;48.000;9.654;2022-12-19T01:06:26;49.30;;;20.20;;
20884;SDS011;10602;48.000;9.654;2022-12-19T01:08:54;45.57;;;19.83;;
20884;SDS011;10602;48.000;9.654;2022-12-19T01:11:21;50.30;;;19.77;;
20884;SDS011;10602;48.000;9.654;2022-12-19T01:14:08;45.73;;;19.90;;
20884;SDS011;10602;48.000;9.654;2022-12-19T01:16:37;50.27;;;20.27;;
20884;SDS011;10602;48.000;9.654;2022-12-19T01:19:04;48.87;;;18.93;;
20884;SDS011;10602;48.000;9.654;2022-12-19T01:21:32;48.80;;;20.90;;
20884;SDS011;10602;48.000;9.654;2022-12-19T01:24:00;45.67;;;18.30;;
20884;SDS011;10602;48.000;9.654;2022-12-19T01:26:28;46.50;;;20.30;;
20884;SDS011;10602;48.000;9.654;2022-12-19T01:28:56;51.07;;;21.10;;
20884;SDS011;10602;48.000;9.654;2022-12-19T01:31:24;51.00;;;19.53;;
20884;SDS011;10602;48.000;9.654;2022-12-19T01:33:51;42.23;;;18.07;;
20884;SDS011;10602;48.000;9.654;2022-12-19T01:36:19;45.60;;;18.87;;
20884;SDS011;10602;48.000;9.654;2022-12-19T01:38:46;47.47;;;18.27;;
20884;SDS011;10602;48.000;9.654;2022-12-19T01:41:13;49.30;;;19.10;;
20884;SDS011;10602;48.000;9.654;2022-12-19T01:43:57;44.20;;;19.30;;
20884;SDS011;10602;48.000;9.654;2022-12-19T01:46:37;38.77;;;16.77;;
20884;SDS011;10602;48.000;9.654;2022-12-19T01:49:03;43.73;;;18.43;;
20884;SDS011;10602;48.000;9.654;2022-12-19T01:51:36;41.83;;;18.03;;
20884;SDS011;10602;48.000;9.654;2022-12-19T01:54:06;47.77;;;19.43;;
20884;SDS011;10602;48.000;9.654;2022-12-19T01:56:35;48.67;;;19.37;;
20884;SDS011;10602;48.000;9.654;2022-12-19T01:59:07;42.80;;;19.60;;
20884;SDS011;10602;48.000;9.654;2022-12-19T02:01:37;48.97;;;19.13;;
20884;SDS011;10602;48.000;9.654;2022-12-19T02:04:06;47.40;;;18.87;;
20884;SDS011;10602;48.000;9.654;2022-12-19T02:06:34;43.97;;;19.13;;
20884;SDS011;10602;48.000;9.654;2022-12-19T02:09:02;43.73;;;18.33;;
20884;SDS011;10602;48.000;9.654;2022-12-19T02:11:30;43.53;;;18.77;;
20884;SDS011;10602;48.000;9.654;2022-12-19T02:13:57;42.63;;;18.97;;
20884;SDS011;10602;48.000;9.654;2022-12-19T02:24:55;36.37;;;16.30;;
20884;SDS011;10602;48.000;9.654;2022-12-19T02:27:48;40.83;;;17.43;;
20884;SDS011;10602;48.000;9.654;2022-12-19T02:30:13;42.87;;;17.43;;
20884;SDS011;10602;48.000;9.654;2022-12-19T02:32:47;44.83;;;18.10;;
20884;SDS011;10602;48.000;9.654;2022-12-19T02:35:24;41.60;;;17.77;;
20884;SDS011;10602;48.000;9.654;2022-12-19T02:41:04;45.70;;;18.93;;
20884;SDS011;10602;48.000;9.654;2022-12-19T02:43:38;44.90;;;18.03;;
20884;SDS011;10602;48.000;9.654;2022-12-19T02:46:07;41.33;;;17.90;;
20884;SDS011;10602;48.000;9.654;2022-12-19T02:48:37;45.77;;;18.47;;
20884;SDS011;10602;48.000;9.654;2022-12-19T02:51:05;43.30;;;19.70;;
20884;SDS011;10602;48.000;9.654;2022-12-19T02:53:32;45.63;;;20.50;;
20884;SDS011;10602;48.000;9.654;2022-12-19T02:58:44;42.13;;;17.73;;
20884;SDS011;10602;48.000;9.654;2022-12-19T03:04:25;44.90;;;19.73;;
20884;SDS011;10602;48.000;9.654;2022-12-19T03:06:58;49.77;;;20.87;;
20884;SDS011;10602;48.000;9.654;2022-12-19T03:12:10;46.90;;;19.83;;
20884;SDS011;10602;48.000;9.654;2022-12-19T03:14:38;46.23;;;18.67;;
20884;SDS011;10602;48.000;9.654;2022-12-19T03:17:07;43.07;;;18.90;;
20884;SDS011;10602;48.000;9.654;2022-12-19T03:19:35;45.00;;;20.03;;
20884;SDS011;10602;48.000;9.654;2022-12-19T03:22:05;43.83;;;19.27;;
20884;SDS011;10602;48.000;9.654;2022-12-19T03:24:33;45.67;;;20.47;;
20884;SDS011;10602;48.000;9.654;2022-12-19T03:27:07;47.93;;;19.23;;
20884;SDS011;10602;48.000;9.654;2022-12-19T03:29:59;50.40;;;19.77;;
20884;SDS011;10602;48.000;9.654;2022-12-19T03:32:23;49.17;;;18.47;;
20884;SDS011;10602;48.000;9.654;2022-12-19T03:35:05;44.60;;;20.37;;
20884;SDS011;10602;48.000;9.654;2022-12-19T03:37:35;47.50;;;19.87;;
20884;SDS011;10602;48.000;9.654;2022-12-19T03:40:11;49.10;;;21.90;;
20884;SDS011;10602;48.000;9.654;2022-12-19T03:42:36;52.67;;;20.87;;
20884;SDS011;10602;48.000;9.654;2022-12-19T03:45:28;57.77;;;22.80;;
20884;SDS011;10602;48.000;9.654;2022-12-19T03:47:59;49.80;;;22.50;;
20884;SDS011;10602;48.000;9.654;2022-12-19T03:50:30;53.70;;;22.30;;
20884;SDS011;10602;48.000;9.654;2022-12-19T03:53:03;48.20;;;20.10;;
20884;SDS011;10602;48.000;9.654;2022-12-19T03:58:09;54.10;;;22.20;;
20884;SDS011;10602;48.000;9.654;2022-12-19T04:00:40;51.13;;;20.83;;
20884;SDS011;10602;48.000;9.654;2022-12-19T04:03:12;53.53;;;20.93;;
20884;SDS011;10602;48.000;9.654;2022-12-19T04:05:42;55.30;;;23.20;;
20884;SDS011;10602;48.000;9.654;2022-12-19T04:08:13;54.53;;;20.73;;
20884;SDS011;10602;48.000;9.654;2022-12-19T04:10:48;54.37;;;20.97;;
20884;SDS011;10602;48.000;9.654;2022-12-19T04:13:19;54.27;;;22.20;;
20884;SDS011;10602;48.000;9.654;2022-12-19T04:15:59;53.30;;;22.03;;
20884;SDS011;10602;48.000;9.654;2022-12-19T04:18:28;49.67;;;21.77;;
20884;SDS011;10602;48.000;9.654;2022-12-19T04:20:58;56.63;;;22.53;;
20884;SDS011;10602;48.000;9.654;2022-12-19T04:23:48;55.03;;;22.53;;
20884;SDS011;10602;48.000;9.654;2022-12-19T04:26:13;64.83;;;25.63;;
20884;SDS011;10602;48.000;9.654;2022-12-19T04:28:50;53.90;;;23.70;;
20884;SDS011;10602;48.000;9.654;2022-12-19T04:31:20;61.13;;;27.73;;
20884;SDS011;10602;48.000;9.654;2022-12-19T04:33:48;64.00;;;25.80;;
20884;SDS011;10602;48.000;9.654;2022-12-19T04:36:16;52.17;;;22.50;;
20884;SDS011;10602;48.000;9.654;2022-12-19T04:38:44;56.90;;;21.97;;
20884;SDS011;10602;48.000;9.654;2022-12-19T04:41:11;58.20;;;21.70;;
20884;SDS011;10602;48.000;9.654;2022-12-19T04:43:39;54.80;;;23.27;;
20884;SDS011;10602;48.000;9.654;2022-12-19T04:46:06;50.43;;;21.83;;
20884;SDS011;10602;48.000;9.654;2022-12-19T04:48:34;55.33;;;23.90;;
20884;SDS011;10602;48.000;9.654;2022-12-19T04:51:02;52.27;;;21.77;;
20884;SDS011;10602;48.000;9.654;2022-12-19T04:53:30;62.37;;;22.80;;
20884;SDS011;10602;48.000;9.654;2022-12-19T04:56:02;57.47;;;23.93;;
20884;SDS011;10602;48.000;9.654;2022-12-19T04:58:31;52.97;;;22.20;;
20884;SDS011;10602;48.000;9.654;2022-12-19T05:01:00;54.60;;;21.73;;
20884;SDS011;10602;48.000;9.654;2022-12-19T05:03:28;53.90;;;21.50;;
20884;SDS011;10602;48.000;9.654;2022-12-19T05:06:12;54.10;;;22.87;;
20884;SDS011;10602;48.000;9.654;2022-12-19T05:08:37;60.50;;;23.23;;
20884;SDS011;10602;48.000;9.654;2022-12-19T05:11:07;54.93;;;21.80;;
20884;SDS011;10602;48.000;9.654;2022-12-19T05:13:35;55.57;;;22.83;;
20884;SDS011;10602;48.000;9.654;2022-12-19T05:16:09;53.97;;;22.97;;
20884;SDS011;10602;48.000;9.654;2022-12-19T05:18:33;61.03;;;22.80;;
20884;SDS011;10602;48.000;9.654;2022-12-19T05:21:02;61.10;;;26.13;;
20884;SDS011;10602;48.000;9.654;2022-12-19T05:23:31;63.90;;;26.63;;
20884;SDS011;10602;48.000;9.654;2022-12-19T05:25:59;56.03;;;22.20;;
20884;SDS011;10602;48.000;9.654;2022-12-19T05:28:27;56.10;;;24.37;;
20884;SDS011;10602;48.000;9.654;2022-12-19T05:31:07;57.63;;;23.10;;
20884;SDS011;10602;48.000;9.654;2022-12-19T05:33:36;56.83;;;23.47;;
20884;SDS011;10602;48.000;9.654;2022-12-19T05:36:04;55.77;;;23.50;;
20884;SDS011;10602;48.000;9.654;2022-12-19T05:38:33;61.20;;;23.93;;
20884;SDS011;10602;48.000;9.654;2022-12-19T05:41:16;59.33;;;23.30;;
20884;SDS011;10602;48.000;9.654;2022-12-19T05:43:40;61.03;;;23.93;;
20884;SDS011;10602;48.000;9.654;2022-12-19T05:46:08;57.33;;;23.07;;
20884;SDS011;10602;48.000;9.654;2022-12-19T05:48:36;54.43;;;22.30;;
20884;SDS011;10602;48.000;9.654;2022-12-19T05:51:04;50.30;;;22.67;;
20884;SDS011;10602;48.000;9.654;2022-12-19T05:53:35;58.40;;;22.93;;
20884;SDS011;10602;48.000;9.654;2022-12-19T05:56:10;61.90;;;23.40;;
20884;SDS011;10602;48.000;9.654;2022-12-19T05:58:35;53.13;;;22.03;;
20884;SDS011;10602;48.000;9.654;2022-12-19T06:01:04;55.23;;;24.53;;
20884;SDS011;10602;48.000;9.654;2022-12-19T06:03:34;61.80;;;25.83;;
20884;SDS011;10602;48.000;9.654;2022-12-19T06:06:02;53.20;;;22.60;;
20884;SDS011;10602;48.000;9.654;2022-12-19T06:08:31;55.70;;;25.17;;
20884;SDS011;10602;48.000;9.654;2022-12-19T06:10:59;55.77;;;26.20;;
20884;SDS011;10602;48.000;9.654;2022-12-19T06:13:28;57.03;;;23.83;;
20884;SDS011;10602;48.000;9.654;2022-12-19T06:15:59;92.63;;;40.23;;
20884;SDS011;10602;48.000;9.654;2022-12-19T06:18:29;96.03;;;46.00;;
20884;SDS011;10602;48.000;9.654;2022-12-19T06:20:58;91.70;;;41.07;;
20884;SDS011;10602;48.000;9.654;2022-12-19T06:23:31;58.70;;;26.80;;
20884;SDS011;10602;48.000;9.654;2022-12-19T06:26:01;125.80;;;56.20;;
20884;SDS011;10602;48.000;9.654;2022-12-19T06:28:30;57.40;;;24.87;;
20884;SDS011;10602;48.000;9.654;2022-12-19T06:31:00;98.33;;;45.73;;
20884;SDS011;10602;48.000;9.654;2022-12-19T06:33:30;77.83;;;33.83;;
20884;SDS011;10602;48.000;9.654;2022-12-19T06:36:05;65.37;;;30.57;;
20884;SDS011;10602;48.000;9.654;2022-12-19T06:38:34;88.63;;;38.10;;
20884;SDS011;10602;48.000;9.654;2022-12-19T06:41:02;62.23;;;26.90;;
20884;SDS011;10602;48.000;9.654;2022-12-19T06:43:48;59.10;;;25.97;;
20884;SDS011;10602;48.000;9.654;2022-12-19T06:46:16;61.07;;;26.30;;
20884;SDS011;10602;48.000;9.654;2022-12-19T06:48:43;51.73;;;22.33;;
20884;SDS011;10602;48.000;9.654;2022-12-19T06:51:11;65.30;;;27.57;;
20884;SDS011;10602;48.000;9.654;2022-12-19T06:53:38;62.40;;;27.53;;
20884;SDS011;10602;48.000;9.654;2022-12-19T06:56:06;52.00;;;23.43;;
20884;SDS011;10602;48.000;9.654;2022-12-19T06:58:34;59.13;;;26.53;;
20884;SDS011;10602;48.000;9.654;2022-12-19T07:01:01;54.97;;;26.43;;
20884;SDS011;10602;48.000;9.654;2022-12-19T07:03:29;54.43;;;24.00;;
20884;SDS011;10602;48.000;9.654;2022-12-19T07:06:00;50.20;;;22.33;;
20884;SDS011;10602;48.000;9.654;2022-12-19T07:08:27;51.27;;;23.03;;
20884;SDS011;10602;48.000;9.654;2022-12-19T07:10:55;54.70;;;24.70;;
20884;SDS011;10602;48.000;9.654;2022-12-19T07:13:23;53.30;;;24.93;;
20884;SDS011;10602;48.000;9.654;2022-12-19T07:15:52;51.70;;;23.57;;
20884;SDS011;10602;48.000;9.654;2022-12-19T07:18:22;49.90;;;23.10;;
20884;SDS011;10602;48.000;9.654;2022-12-19T07:20:50;50.00;;;22.97;;
20884;SDS011;10602;48.000;9.654;2022-12-19T07:23:18;53.30;;;24.17;;
20884;SDS011;10602;48.000;9.654;2022-12-19T07:25:47;51.27;;;23.67;;
20884;SDS011;10602;48.000;9.654;2022-12-19T07:28:15;54.10;;;24.20;;
20884;SDS011;10602;48.000;9.654;2022-12-19T07:30:43;55.40;;;24.23;;
20884;SDS011;10602;48.000;9.654;2022-12-19T07:33:10;47.13;;;21.47;;
20884;SDS011;10602;48.000;9.654;2022-12-19T07:35:38;52.93;;;24.67;;
20884;SDS011;10602;48.000;9.654;2022-12-19T07:38:06;47.60;;;22.60;;
20884;SDS011;10602;48.000;9.654;2022-12-19T07:40:33;52.07;;;24.80;;
20884;SDS011;10602;48.000;9.654;2022-12-19T07:43:02;50.80;;;23.73;;
20884;SDS011;10602;48.000;9.654;2022-12-19T07:45:31;52.33;;;23.43;;
20884;SDS011;10602;48.000;9.654;2022-12-19T07:47:59;49.53;;;26.23;;
20884;SDS011;10602;48.000;9.654;2022-12-19T07:50:28;48.37;;;22.60;;
20884;SDS011;10602;48.000;9.654;2022-12-19T07:52:56;49.57;;;21.90;;
20884;SDS011;10602;48.000;9.654;2022-12-19T07:55:24;49.20;;;22.53;;
20884;SDS011;10602;48.000;9.654;2022-12-19T07:57:52;46.93;;;24.07;;
20884;SDS011;10602;48.000;9.654;2022-12-19T08:00:23;53.50;;;25.77;;
20884;SDS011;10602;48.000;9.654;2022-12-19T08:02:50;53.17;;;24.37;;
20884;SDS011;10602;48.000;9.654;2022-12-19T08:05:18;49.97;;;24.13;;
20884;SDS011;10602;48.000;9.654;2022-12-19T08:07:45;44.17;;;21.93;;
20884;SDS011;10602;48.000;9.654;2022-12-19T08:10:13;52.53;;;23.47;;
20884;SDS011;10602;48.000;9.654;2022-12-19T08:12:40;51.70;;;24.37;;
20884;SDS011;10602;48.000;9.654;2022-12-19T08:15:08;50.07;;;24.40;;
20884;SDS011;10602;48.000;9.654;2022-12-19T08:17:36;45.17;;;21.63;;
20884;SDS011;10602;48.000;9.654;2022-12-19T08:20:05;41.53;;;20.57;;
20884;SDS011;10602;48.000;9.654;2022-12-19T08:22:33;45.57;;;23.23;;
20884;SDS011;10602;48.000;9.654;2022-12-19T08:25:01;47.43;;;22.40;;
20884;SDS011;10602;48.000;9.654;2022-12-19T08:27:28;53.47;;;25.67;;
20884;SDS011;10602;48.000;9.654;2022-12-19T08:29:56;51.07;;;23.47;;
20884;SDS011;10602;48.000;9.654;2022-12-19T08:32:23;51.40;;;25.17;;
20884;SDS011;10602;48.000;9.654;2022-12-19T08:34:51;52.37;;;24.73;;
20884;SDS011;10602;48.000;9.654;2022-12-19T08:37:19;51.47;;;24.10;;
20884;SDS011;10602;48.000;9.654;2022-12-19T08:39:47;49.50;;;24.67;;
20884;SDS011;10602;48.000;9.654;2022-12-19T08:42:14;48.67;;;23.90;;
20884;SDS011;10602;48.000;9.654;2022-12-19T08:44:42;50.57;;;24.20;;
20884;SDS011;10602;48.000;9.654;2022-12-19T08:47:09;54.03;;;24.67;;
20884;SDS011;10602;48.000;9.654;2022-12-19T08:49:37;51.47;;;23.90;;
20884;SDS011;10602;48.000;9.654;2022-12-19T08:52:05;52.27;;;24.97;;
20884;SDS011;10602;48.000;9.654;2022-12-19T08:54:32;53.90;;;23.60;;
20884;SDS011;10602;48.000;9.654;2022-12-19T08:57:00;49.47;;;23.23;;
20884;SDS011;10602;48.000;9.654;2022-12-19T08:59:27;49.63;;;24.40;;
20884;SDS011;10602;48.000;9.654;2022-12-19T09:01:55;50.77;;;24.83;;
20884;SDS011;10602;48.000;9.654;2022-12-19T09:04:22;50.40;;;24.10;;
20884;SDS011;10602;48.000;9.654;2022-12-19T09:06:50;51.67;;;25.93;;
20884;SDS011;10602;48.000;9.654;2022-12-19T09:09:17;55.40;;;26.57;;
20884;SDS011;10602;48.000;9.654;2022-12-19T09:11:45;53.20;;;26.40;;
20884;SDS011;10602;48.000;9.654;2022-12-19T09:14:12;49.87;;;25.30;;
20884;SDS011;10602;48.000;9.654;2022-12-19T09:16:40;48.43;;;25.47;;
20884;SDS011;10602;48.000;9.654;2022-12-19T09:19:08;51.97;;;25.83;;
20884;SDS011;10602;48.000;9.654;2022-12-19T09:21:37;50.27;;;26.50;;
20884;SDS011;10602;48.000;9.654;2022-12-19T09:24:04;52.13;;;26.07;;
20884;SDS011;10602;48.000;9.654;2022-12-19T09:26:32;54.53;;;27.57;;
20884;SDS011;10602;48.000;9.654;2022-12-19T09:29:00;55.30;;;28.73;;
20884;SDS011;10602;48.000;9.654;2022-12-19T09:31:29;57.23;;;29.97;;
20884;SDS011;10602;48.000;9.654;2022-12-19T09:33:56;59.20;;;31.27;;
20884;SDS011;10602;48.000;9.654;2022-12-19T09:36:24;54.93;;;29.37;;
20884;SDS011;10602;48.000;9.654;2022-12-19T09:38:52;56.50;;;28.77;;
20884;SDS011;10602;48.000;9.654;2022-12-19T09:41:25;52.67;;;28.17;;
20884;SDS011;10602;48.000;9.654;2022-12-19T09:44:04;50.53;;;28.43;;
20884;SDS011;10602;48.000;9.654;2022-12-19T09:46:53;50.77;;;28.10;;
20884;SDS011;10602;48.000;9.654;2022-12-19T09:49:22;56.67;;;29.93;;
20884;SDS011;10602;48.000;9.654;2022-12-19T09:51:58;56.23;;;30.77;;
20884;SDS011;10602;48.000;9.654;2022-12-19T09:54:36;57.80;;;32.03;;
20884;SDS011;10602;48.000;9.654;2022-12-19T09:57:03;63.17;;;35.20;;
20884;SDS011;10602;48.000;9.654;2022-12-19T09:59:43;58.53;;;34.37;;
20884;SDS011;10602;48.000;9.654;2022-12-19T10:02:30;52.87;;;32.33;;
20884;SDS011;10602;48.000;9.654;2022-12-19T10:05:47;50.93;;;31.33;;
20884;SDS011;10602;48.000;9.654;2022-12-19T10:07:34;48.57;;;30.80;;
20884;SDS011;10602;48.000;9.654;2022-12-19T10:10:01;52.90;;;35.63;;
20884;SDS011;10602;48.000;9.654;2022-12-19T10:13:14;59.60;;;38.27;;
20884;SDS011;10602;48.000;9.654;2022-12-19T10:20:51;40.27;;;28.53;;
20884;SDS011;10602;48.000;9.654;2022-12-19T10:23:23;42.33;;;28.27;;
20884;SDS011;10602;48.000;9.654;2022-12-19T10:26:15;40.73;;;27.90;;
20884;SDS011;10602;48.000;9.654;2022-12-19T10:31:35;46.97;;;29.10;;
20884;SDS011;10602;48.000;9.654;2022-12-19T10:36:46;44.13;;;29.13;;
20884;SDS011;10602;48.000;9.654;2022-12-19T10:39:47;52.03;;;32.40;;
20884;SDS011;10602;48.000;9.654;2022-12-19T10:42:21;45.10;;;31.90;;
20884;SDS011;10602;48.000;9.654;2022-12-19T10:45:11;45.27;;;30.53;;
20884;SDS011;10602;48.000;9.654;2022-12-19T10:47:36;46.83;;;32.03;;
20884;SDS011;10602;48.000;9.654;2022-12-19T10:50:10;52.50;;;33.70;;
20884;SDS011;10602;48.000;9.654;2022-12-19T10:52:52;53.27;;;34.50;;
20884;SDS011;10602;48.000;9.654;2022-12-19T10:55:21;52.37;;;33.53;;
20884;SDS011;10602;48.000;9.654;2022-12-19T10:57:56;44.63;;;28.43;;
20884;SDS011;10602;48.000;9.654;2022-12-19T11:00:29;48.83;;;28.63;;
20884;SDS011;10602;48.000;9.654;2022-12-19T11:03:13;45.33;;;28.50;;
20884;SDS011;10602;48.000;9.654;2022-12-19T12:55:26;24.03;;;15.17;;
20884;SDS011;10602;48.000;9.654;2022-12-19T13:01:07;23.43;;;14.93;;
20884;SDS011;10602;48.000;9.654;2022-12-19T13:09:51;26.73;;;16.53;;
20884;SDS011;10602;48.000;9.654;2022-12-19T13:12:26;25.13;;;16.10;;
20884;SDS011;10602;48.000;9.654;2022-12-19T13:15:34;23.30;;;14.57;;
20884;SDS011;10602;48.000;9.654;2022-12-19T13:20:40;40.90;;;27.33;;
20884;SDS011;10602;48.000;9.654;2022-12-19T13:23:31;33.53;;;21.60;;
20884;SDS011;10602;48.000;9.654;2022-12-19T13:25:55;32.37;;;20.03;;
20884;SDS011;10602;48.000;9.654;2022-12-19T13:28:35;25.37;;;15.97;;
20884;SDS011;10602;48.000;9.654;2022-12-19T13:31:12;26.77;;;16.10;;
20884;SDS011;10602;48.000;9.654;2022-12-19T13:39:33;25.37;;;16.73;;
20884;SDS011;10602;48.000;9.654;2022-12-19T13:42:14;42.00;;;29.80;;
20884;SDS011;10602;48.000;9.654;2022-12-19T15:21:47;51.23;;;29.30;;
20884;SDS011;10602;48.000;9.654;2022-12-19T15:24:16;48.03;;;28.17;;
20884;SDS011;10602;48.000;9.654;2022-12-19T15:26:49;39.87;;;22.23;;
20884;SDS011;10602;48.000;9.654;2022-12-19T15:29:26;38.60;;;21.73;;
20884;SDS011;10602;48.000;9.654;2022-12-19T15:32:00;39.50;;;23.73;;
20884;SDS011;10602;48.000;9.654;2022-12-19T15:34:31;35.87;;;21.20;;
20884;SDS011;10602;48.000;9.654;2022-12-19T15:37:02;36.53;;;21.10;;
20884;SDS011;10602;48.000;9.654;2022-12-19T15:39:33;35.17;;;20.13;;
20884;SDS011;10602;48.000;9.654;2022-12-19T15:42:04;35.17;;;21.13;;
20884;SDS011;10602;48.000;9.654;2022-12-19T15:44:37;34.83;;;20.73;;
20884;SDS011;10602;48.000;9.654;2022-12-19T15:47:16;34.73;;;21.60;;
20884;SDS011;10602;48.000;9.654;2022-12-19T15:50:12;37.20;;;20.50;;
20884;SDS011;10602;48.000;9.654;2022-12-19T15:52:45;35.40;;;21.33;;
20884;SDS011;10602;48.000;9.654;2022-12-19T15:55:39;30.43;;;19.53;;
20884;SDS011;10602;48.000;9.654;2022-12-19T15:58:15;48.20;;;27.27;;
20884;SDS011;10602;48.000;9.654;2022-12-19T16:04:16;40.07;;;22.13;;
20884;SDS011;10602;48.000;9.654;2022-12-19T16:09:37;35.97;;;21.50;;
20884;SDS011;10602;48.000;9.654;2022-12-19T16:12:08;39.60;;;23.87;;
20884;SDS011;10602;48.000;9.654;2022-12-19T16:14:42;51.00;;;27.70;;
20884;SDS011;10602;48.000;9.654;2022-12-19T16:17:12;54.47;;;30.53;;
20884;SDS011;10602;48.000;9.654;2022-12-19T16:22:41;42.20;;;24.97;;
20884;SDS011;10602;48.000;9.654;2022-12-19T16:25:20;36.20;;;21.60;;
20884;SDS011;10602;48.000;9.654;2022-12-19T16:27:47;33.83;;;21.00;;
20884;SDS011;10602;48.000;9.654;2022-12-19T16:30:24;33.23;;;20.73;;
20884;SDS011;10602;48.000;9.654;2022-12-19T16:33:02;29.90;;;18.73;;
20884;SDS011;10602;48.000;9.654;2022-12-19T16:35:40;31.80;;;18.20;;
20884;SDS011;10602;48.000;9.654;2022-12-19T16:38:16;30.60;;;19.03;;
20884;SDS011;10602;48.000;9.654;2022-12-19T16:40:48;32.80;;;18.93;;
20884;SDS011;10602;48.000;9.654;2022-12-19T16:43:36;31.80;;;18.83;;
20884;SDS011;10602;48.000;9.654;2022-12-19T16:46:08;35.77;;;20.47;;
20884;SDS011;10602;48.000;9.654;2022-12-19T16:48:49;35.90;;;21.90;;
20884;SDS011;10602;48.000;9.654;2022-12-19T16:51:27;33.90;;;21.53;;
20884;SDS011;10602;48.000;9.654;2022-12-19T16:53:56;37.47;;;21.47;;
20884;SDS011;10602;48.000;9.654;2022-12-19T17:02:57;30.20;;;18.83;;
20884;SDS011;10602;48.000;9.654;2022-12-19T17:46:37;45.23;;;26.17;;
20884;SDS011;10602;48.000;9.654;2022-12-19T17:49:20;43.43;;;27.00;;
20884;SDS011;10602;48.000;9.654;2022-12-19T18:04:26;62.83;;;32.27;;
20884;SDS011;10602;48.000;9.654;2022-12-19T18:46:47;95.53;;;48.43;;
20884;SDS011;10602;48.000;9.654;2022-12-19T18:49:21;100.80;;;50.67;;
20884;SDS011;10602;48.000;9.654;2022-12-19T18:51:55;91.83;;;47.93;;
20884;SDS011;10602;48.000;9.654;2022-12-19T18:54:45;64.03;;;36.77;;
20884;SDS011;10602;48.000;9.654;2022-12-19T18:57:18;110.23;;;56.70;;
20884;SDS011;10602;48.000;9.654;2022-12-19T19:00:07;66.60;;;38.77;;
20884;SDS011;10602;48.000;9.654;2022-12-19T19:02:40;51.73;;;32.47;;
20884;SDS011;10602;48.000;9.654;2022-12-19T19:05:19;46.43;;;30.30;;
20884;SDS011;10602;48.000;9.654;2022-12-19T19:07:52;47.93;;;27.97;;
20884;SDS011;10602;48.000;9.654;2022-12-19T19:10:27;43.43;;;27.63;;
20884;SDS011;10602;48.000;9.654;2022-12-19T19:13:00;43.23;;;26.60;;
20884;SDS011;10602;48.000;9.654;2022-12-19T19:15:36;39.73;;;27.47;;
20884;SDS011;10602;48.000;9.654;2022-12-19T19:18:07;46.33;;;29.57;;
20884;SDS011;10602;48.000;9.654;2022-12-19T19:20:45;44.03;;;27.13;;
20884;SDS011;10602;48.000;9.654;2022-12-19T19:23:21;63.60;;;35.63;;
20884;SDS011;10602;48.000;9.654;2022-12-19T22:27:34;37.90;;;23.23;;
20884;SDS011;10602;48.000;9.654;2022-12-19T22:30:01;33.07;;;22.63;;
20884;SDS011;10602;48.000;9.654;2022-12-19T22:32:29;29.40;;;18.60;;
20884;SDS011;10602;48.000;9.654;2022-12-19T22:34:56;27.00;;;17.03;;
20884;SDS011;10602;48.000;9.654;2022-12-19T22:37:24;28.50;;;17.13;;
20884;SDS011;10602;48.000;9.654;2022-12-19T22:39:52;26.07;;;16.30;;
20884;SDS011;10602;48.000;9.654;2022-12-19T22:42:20;26.80;;;17.07;;
20884;SDS011;10602;48.000;9.654;2022-12-19T22:44:48;25.20;;;17.00;;
20884;SDS011;10602;48.000;9.654;2022-12-19T22:47:17;26.83;;;15.93;;
20884;SDS011;10602;48.000;9.654;2022-12-19T22:49:45;24.37;;;15.83;;
20884;SDS011;10602;48.000;9.654;2022-12-19T22:52:14;24.33;;;16.43;;
20884;SDS011;10602;48.000;9.654;2022-12-19T22:54:41;27.80;;;18.43;;
20884;SDS011;10602;48.000;9.654;2022-12-19T22:57:09;31.87;;;19.47;;
20884;SDS011;10602;48.000;9.654;2022-12-19T22:59:36;31.03;;;19.40;;
20884;SDS011;10602;48.000;9.654;2022-12-19T23:02:05;32.47;;;20.03;;
20884;SDS011;10602;48.000;9.654;2022-12-19T23:04:33;29.40;;;19.20;;
20884;SDS011;10602;48.000;9.654;2022-12-19T23:07:01;36.77;;;22.00;;
20884;SDS011;10602;48.000;9.654;2022-12-19T23:09:30;38.07;;;21.77;;
20884;SDS011;10602;48.000;9.654;2022-12-19T23:11:57;34.43;;;21.43;;
20884;SDS011;10602;48.000;9.654;2022-12-19T23:14:25;34.63;;;22.43;;
20884;SDS011;10602;48.000;9.654;2022-12-19T23:16:52;36.83;;;22.90;;
20884;SDS011;10602;48.000;9.654;2022-12-19T23:19:20;36.60;;;23.63;;
20884;SDS011;10602;48.000;9.654;2022-12-19T23:21:49;38.17;;;23.80;;
20884;SDS011;10602;48.000;9.654;2022-12-19T23:24:17;36.97;;;22.97;;
20884;SDS011;10602;48.000;9.654;2022-12-19T23:26:45;39.27;;;23.13;;
20884;SDS011;10602;48.000;9.654;2022-12-19T23:29:13;36.20;;;21.73;;
20884;SDS011;10602;48.000;9.654;2022-12-19T23:31:41;35.97;;;22.67;;
20884;SDS011;10602;48.000;9.654;2022-12-19T23:34:11;42.77;;;23.97;;
20884;SDS011;10602;48.000;9.654;2022-12-19T23:36:39;41.60;;;24.93;;
20884;SDS011;10602;48.000;9.654;2022-12-19T23:39:08;54.47;;;30.57;;
20884;SDS011;10602;48.000;9.654;2022-12-19T23:41:36;68.63;;;36.97;;
20884;SDS011;10602;48.000;9.654;2022-12-19T23:44:05;48.90;;;29.87;;
20884;SDS011;10602;48.000;9.654;2022-12-19T23:46:33;38.20;;;25.10;;
20884;SDS011;10602;48.000;9.654;2022-12-19T23:49:00;42.50;;;25.80;;
20884;SDS011;10602;48.000;9.654;2022-12-19T23:51:28;46.23;;;27.10;;
20884;SDS011;10602;48.000;9.654;2022-12-19T23:53:56;41.37;;;24.63;;
20884;SDS011;10602;48.000;9.654;2022-12-19T23:56:25;40.63;;;26.43;;